Ora Direzione Vento Velocita' Vento Media Vento Raffica Max. Temperatura Wind Chill Pioggia Pressione
15:12:38.0353 °(N)7.6 Kts6.66 Kts10.2 Kts17.5 °C17.26 °C0.0 mm0.0 Hpa
14:51:47.0358 °(N)8.6 Kts8.56 Kts10.2 Kts17.2 °C16.76 °C0.0 mm0.0 Hpa
14:32:09.0351 °(N)8.2 Kts8.3 Kts10.2 Kts17.1 °C16.73 °C0.0 mm0.0 Hpa
14:11:34.0345 °(NNW)8.5 Kts8.16 Kts10.2 Kts17.2 °C16.76 °C0.0 mm0.0 Hpa
13:51:55.0355 °(N)7.9 Kts7.13 Kts9.2 Kts17.1 °C16.77 °C0.0 mm0.0 Hpa
13:32:30.0352 °(N)6.6 Kts7.5 Kts8.3 Kts17.1 °C16.9 °C0.0 mm0.0 Hpa
13:12:02.0342 °(NNW)4.5 Kts4.86 Kts7.7 Kts17.0 °C17.25 °C0.0 mm0.0 Hpa
12:51:38.0346 °(NNW)7.4 Kts5.83 Kts7.4 Kts16.6 °C16.25 °C0.0 mm0.0 Hpa
12:32:18.0346 °(NNW)4.0 Kts4.5 Kts5.6 Kts16.6 °C16.88 °C0.0 mm0.0 Hpa
12:11:53.00 °(N)0.0 Kts0.0 Kts4.9 Kts16.6 °C23.43 °C0.0 mm0.0 Hpa
11:52:12.00 °(N)0.0 Kts0.0 Kts4.9 Kts16.1 °C23.12 °C0.0 mm0.0 Hpa
11:31:48.00 °(N)0.0 Kts0.0 Kts4.9 Kts15.3 °C22.62 °C0.0 mm0.0 Hpa
11:11:26.00 °(N)0.0 Kts0.0 Kts4.9 Kts14.6 °C22.19 °C0.0 mm0.0 Hpa
10:52:21.00 °(N)0.0 Kts0.0 Kts4.9 Kts14.0 °C21.82 °C0.0 mm0.0 Hpa
10:31:59.00 °(N)0.0 Kts0.0 Kts4.9 Kts13.3 °C21.38 °C0.0 mm0.0 Hpa
10:11:40.00 °(N)0.0 Kts0.0 Kts4.9 Kts12.6 °C20.95 °C0.0 mm0.0 Hpa
09:52:31.00 °(N)0.0 Kts0.0 Kts4.9 Kts12.1 °C20.64 °C0.0 mm632.3 Hpa
09:32:10.00 °(N)0.0 Kts0.0 Kts4.9 Kts11.6 °C20.32 °C0.0 mm0.0 Hpa
09:11:52.00 °(N)0.0 Kts0.0 Kts4.9 Kts10.6 °C19.7 °C0.0 mm542.6 Hpa
08:51:37.00 °(N)0.0 Kts0.0 Kts4.9 Kts9.3 °C18.89 °C0.0 mm548.2 Hpa